Ponca City, OK

1:38 AM CDT on August 05, 2015 (GMT -0500)
Ponca City Municipal | | Change Station
CLOSE
Current Station
Airport
Location: Ponca City,
Elevation: 1007 ft
Nearby Weather Stations

Elev 1007 ft 36.73 °N, 97.10 °W | Updated 2 hours ago

Clear
Clear
76 °F
Feels Like 76 °F
N
6
Wind Variable Wind from ESE

Today
High -- | Low -- °F
--% Chance of Precip.
Yesterday
High -- | Low -- °F
Precip. -- in
6:37 AM 8:31 PM
Waning Gibbous, 70% visible
Pressure 29.92 in
Visibility 8.0 miles
Clouds Clear
Dew Point 71 °F
Humidity 85%
Rainfall 0.00 in
Snow Depth Not available.
UV 0 out of 12
Pollen 5.90 out of 12
Air Quality Not available.
Flu Activity Not available.
METAR KPNC 050353Z AUTO 11005KT 8SM CLR 24/22 A2996 RMK AO2 SLP132 T02440217

More Conditions Fewer Conditions

Pressure 29.92 in
Visibility 8.0 miles
Clouds Clear
Dew Point 71 °F
Humidity 85%
Rainfall 0.00 in
Snow Depth Not available.
UV 0 out of 12
Pollen 5.90 out of 12
Air Quality Not available.
Flu Activity Not available.
METAR KPNC 050353Z AUTO 11005KT 8SM CLR 24/22 A2996 RMK AO2 SLP132 T02440217

More Conditions Fewer Conditions

10-Day Weather Forecast

×

Almanac

Astronomy

Aug. 05, 2015 Rise Set
Actual Time
Civil Twilight
Nautical Twilight
Astronomical Twilight
Moon
Length of Visible Light
Length of Day
Tomorrow will be .
, % of the Moon is Illuminated

Today's Extremes

State Highs State Lows

Community

WunderPhotos

Upload Photos

1,844,105 photos uploaded!

WunderBlogs® & News

Nearby

Air Quality

  Air Quality AQ Index Pollutant
Not available.

Snow Depth

Station Depth Elevation

Earthquake Activity

City Distance Mag. Time & Date
Minimum magnitude displayed is 2.5.

Coastal Water Temperatures

Place Temperature

Stations

Nearby Weather Stations

Station Location Temp. Windchill Dew Point Humidity Wind Precip. Elev Updated Type